createdAt,value
2019-06-08T00:00:30.261Z,15.50
2019-06-08T00:05:33.285Z,15.50
2019-06-08T00:10:47.970Z,15.50
2019-06-08T00:15:50.652Z,15.50
2019-06-08T00:20:53.370Z,15.40
2019-06-08T00:25:56.085Z,15.40
2019-06-08T00:30:58.766Z,15.50
2019-06-08T00:36:01.502Z,15.50
2019-06-08T00:41:04.311Z,15.40
2019-06-08T00:46:07.041Z,15.40
2019-06-08T00:51:09.715Z,15.30
2019-06-08T00:56:12.445Z,15.30
2019-06-08T01:01:15.186Z,15.30
2019-06-08T01:06:18.829Z,15.20
2019-06-08T01:11:22.571Z,15.20
2019-06-08T01:16:25.303Z,15.20
2019-06-08T01:21:29.865Z,15.10
2019-06-08T01:26:33.142Z,15.10
2019-06-08T01:31:35.885Z,15.10
2019-06-08T01:36:38.540Z,15.00
2019-06-08T01:41:41.206Z,15.00
2019-06-08T01:46:44.338Z,15.00
2019-06-08T01:51:47.009Z,15.00
2019-06-08T01:56:49.736Z,14.90
2019-06-08T02:01:52.418Z,14.90
2019-06-08T02:06:55.145Z,14.90
2019-06-08T02:11:57.819Z,14.90
2019-06-08T02:17:00.543Z,14.90
2019-06-08T02:22:03.203Z,14.80
2019-06-08T02:27:05.868Z,14.70
2019-06-08T02:32:08.612Z,14.70
2019-06-08T02:37:11.353Z,14.70
2019-06-08T02:42:14.109Z,14.70
2019-06-08T02:47:16.843Z,14.60
2019-06-08T02:52:20.320Z,14.60
2019-06-08T02:57:24.392Z,14.50
2019-06-08T03:02:29.673Z,14.50
2019-06-08T03:07:36.702Z,14.50
2019-06-08T03:12:40.336Z,14.50
2019-06-08T03:17:43.605Z,14.40
2019-06-08T03:22:46.331Z,14.40
2019-06-08T03:27:49.063Z,14.30
2019-06-08T03:32:56.470Z,14.30
2019-06-08T03:37:56.105Z,14.20
2019-06-08T03:43:00.301Z,14.20
2019-06-08T03:48:03.294Z,14.20
2019-06-08T03:53:06.020Z,14.20
2019-06-08T03:58:10.518Z,14.20
2019-06-08T04:03:13.347Z,14.10
2019-06-08T04:08:16.087Z,14.10
2019-06-08T04:13:18.821Z,14.00
2019-06-08T04:18:21.481Z,14.00
2019-06-08T04:23:24.530Z,14.10
2019-06-08T04:28:27.635Z,14.10
2019-06-08T04:33:30.744Z,14.00
2019-06-08T04:38:33.480Z,13.90
2019-06-08T04:43:38.325Z,13.90
2019-06-08T04:48:42.827Z,13.80
2019-06-08T04:53:47.066Z,13.80
2019-06-08T04:58:51.121Z,13.80
2019-06-08T05:03:54.133Z,13.80
2019-06-08T05:08:56.811Z,13.80
2019-06-08T05:13:59.552Z,13.80
2019-06-08T05:19:02.214Z,13.70
2019-06-08T05:24:05.191Z,13.70
2019-06-08T05:29:07.932Z,13.80
2019-06-08T05:34:10.694Z,13.70
2019-06-08T05:39:13.429Z,13.70
2019-06-08T05:44:16.112Z,13.80
2019-06-08T05:49:18.782Z,13.80
2019-06-08T05:54:21.460Z,13.70
2019-06-08T05:59:24.200Z,13.80
2019-06-08T06:04:26.914Z,13.80
2019-06-08T06:09:29.621Z,14.00
2019-06-08T06:14:32.351Z,14.00
2019-06-08T06:19:35.014Z,14.10
2019-06-08T06:24:37.709Z,14.00
2019-06-08T06:29:41.392Z,14.20
2019-06-08T06:34:44.215Z,14.20
2019-06-08T06:39:48.122Z,14.30
2019-06-08T06:44:52.319Z,14.30
2019-06-08T06:49:55.219Z,14.30
2019-06-08T06:54:57.966Z,14.40
2019-06-08T07:00:00.699Z,14.50
2019-06-08T07:05:05.431Z,14.30
2019-06-08T07:10:08.589Z,14.30
2019-06-08T07:15:12.923Z,14.50
2019-06-08T07:20:15.652Z,14.70
2019-06-08T07:25:18.331Z,14.80
2019-06-08T07:30:21.564Z,14.80
2019-06-08T07:35:24.632Z,14.90
2019-06-08T07:40:27.329Z,15.10
2019-06-08T07:45:30.063Z,15.20
2019-06-08T07:50:33.136Z,15.40
2019-06-08T07:55:35.846Z,15.40
2019-06-08T08:00:38.556Z,15.60
2019-06-08T08:05:41.554Z,15.60
2019-06-08T08:10:44.238Z,15.60
2019-06-08T08:15:48.998Z,15.50
2019-06-08T08:20:52.958Z,15.60
2019-06-08T08:25:58.364Z,15.50
2019-06-08T08:31:01.806Z,15.50
2019-06-08T08:36:07.152Z,15.30
2019-06-08T08:41:10.901Z,15.30
2019-06-08T08:46:13.831Z,15.40
2019-06-08T08:51:17.942Z,15.30
2019-06-08T08:56:20.947Z,15.40
2019-06-08T09:01:23.678Z,15.50
2019-06-08T09:06:28.042Z,15.60
2019-06-08T09:11:30.808Z,15.70
2019-06-08T09:16:33.612Z,15.80
2019-06-08T09:21:38.299Z,15.80
2019-06-08T09:26:40.759Z,15.80
2019-06-08T09:31:43.489Z,15.70
2019-06-08T09:36:47.822Z,15.70
2019-06-08T09:41:50.649Z,15.80
2019-06-08T09:46:54.032Z,15.70
2019-06-08T09:52:00.412Z,15.80
2019-06-08T09:57:04.388Z,15.80
2019-06-08T10:02:12.398Z,15.90
2019-06-08T10:07:12.129Z,16.10
2019-06-08T10:12:18.238Z,16.30
2019-06-08T10:17:21.259Z,16.30
2019-06-08T10:22:24.115Z,16.20
2019-06-08T10:27:28.340Z,16.30
2019-06-08T10:32:31.280Z,16.40
2019-06-08T10:37:33.948Z,16.60
2019-06-08T10:42:39.832Z,16.50
2019-06-08T10:47:41.601Z,16.50
2019-06-08T10:52:44.615Z,16.80
2019-06-08T10:57:47.835Z,16.90
2019-06-08T11:02:50.972Z,17.10
2019-06-08T11:07:53.687Z,17.10
2019-06-08T11:12:58.231Z,17.30
2019-06-08T11:18:04.531Z,17.80
2019-06-08T11:23:05.711Z,18.10
2019-06-08T11:28:14.909Z,18.20
2019-06-08T11:33:13.114Z,18.00
2019-06-08T11:38:17.524Z,18.10
2019-06-08T11:43:20.348Z,18.30
2019-06-08T11:48:24.078Z,18.30
2019-06-08T11:53:28.846Z,18.50
2019-06-08T11:58:31.564Z,18.70
2019-06-08T12:03:34.301Z,18.80
2019-06-08T12:08:38.078Z,18.40
2019-06-08T12:13:40.938Z,18.50
2019-06-08T12:18:43.675Z,19.10
2019-06-08T12:23:46.342Z,19.10
2019-06-08T12:28:49.311Z,19.50
2019-06-08T12:33:52.105Z,19.00
2019-06-08T12:38:54.827Z,18.70
2019-06-08T12:43:58.054Z,18.50
2019-06-08T12:49:00.886Z,18.40
2019-06-08T12:54:04.082Z,18.50
2019-06-08T12:59:08.823Z,19.10
2019-06-08T13:04:11.504Z,19.70
2019-06-08T13:09:14.761Z,19.80
2019-06-08T13:14:20.367Z,19.90
2019-06-08T13:19:23.555Z,19.70
2019-06-08T13:24:28.436Z,19.50
2019-06-08T13:29:30.692Z,20.00
2019-06-08T13:34:33.349Z,20.60
2019-06-08T13:39:38.647Z,20.60
2019-06-08T13:44:40.404Z,19.20
2019-06-08T13:49:43.144Z,18.60
2019-06-08T13:54:47.916Z,16.80
2019-06-08T13:59:51.600Z,15.50
2019-06-08T14:04:55.017Z,15.40
2019-06-08T14:10:00.611Z,15.50
2019-06-08T14:15:08.547Z,15.20
2019-06-08T14:20:14.564Z,16.30
2019-06-08T14:25:19.813Z,17.50
2019-06-08T14:30:22.430Z,18.50
2019-06-08T14:35:27.100Z,18.90
2019-06-08T14:40:32.735Z,19.10
2019-06-08T14:45:37.637Z,19.70
2019-06-08T14:50:41.043Z,20.20
2019-06-08T14:55:43.924Z,20.20
2019-06-08T15:00:47.977Z,20.10
2019-06-08T15:05:50.813Z,20.30
2019-06-08T15:10:53.555Z,20.40
2019-06-08T15:16:00.448Z,20.70
2019-06-08T15:21:00.637Z,20.70
2019-06-08T15:26:03.383Z,20.60
2019-06-08T15:31:08.429Z,21.40
2019-06-08T15:36:10.502Z,21.10
2019-06-08T15:41:13.181Z,21.80
2019-06-08T15:46:18.220Z,21.60
2019-06-08T15:51:20.258Z,21.40
2019-06-08T15:56:35.521Z,22.20
2019-06-08T16:01:27.370Z,21.50
2019-06-08T16:06:30.366Z,22.20
2019-06-08T16:11:33.025Z,22.50
2019-06-08T16:16:35.717Z,22.40
2019-06-08T16:21:38.447Z,20.60
2019-06-08T16:26:52.642Z,19.60
2019-06-08T16:31:45.524Z,18.80
2019-06-08T16:36:48.326Z,18.50
2019-06-08T16:41:51.055Z,17.90
2019-06-08T16:46:53.792Z,16.80
2019-06-08T16:51:56.529Z,16.40
2019-06-08T16:57:09.364Z,17.60
2019-06-08T17:02:03.725Z,18.80
2019-06-08T17:07:06.511Z,19.70
2019-06-08T17:12:09.197Z,21.40
2019-06-08T17:17:11.998Z,22.60
2019-06-08T17:22:14.666Z,22.90
2019-06-08T17:27:26.686Z,23.50
2019-06-08T17:32:21.797Z,23.70
2019-06-08T17:37:24.467Z,23.70
2019-06-08T17:42:27.266Z,24.00
2019-06-08T17:47:29.929Z,23.70
2019-06-08T17:52:32.786Z,24.00
2019-06-08T17:57:47.294Z,23.60
2019-06-08T18:02:43.299Z,22.70
2019-06-08T18:07:45.659Z,21.20
2019-06-08T18:12:49.429Z,19.90
2019-06-08T18:17:53.094Z,19.20
2019-06-08T18:22:57.763Z,18.60
2019-06-08T18:28:09.718Z,18.30
2019-06-08T18:33:04.677Z,17.90
2019-06-08T18:38:07.697Z,17.60
2019-06-08T18:43:10.488Z,17.70
2019-06-08T18:48:13.170Z,17.60
2019-06-08T18:53:15.898Z,17.70
2019-06-08T18:58:24.722Z,17.50
2019-06-08T19:03:23.050Z,17.40
2019-06-08T19:08:27.826Z,17.40
2019-06-08T19:13:30.858Z,17.50
2019-06-08T19:18:33.527Z,17.50
2019-06-08T19:23:38.854Z,17.30
2019-06-08T19:28:45.405Z,17.30
2019-06-08T19:33:48.986Z,17.20
2019-06-08T19:38:54.561Z,17.30
2019-06-08T19:43:54.751Z,17.30
2019-06-08T19:48:59.041Z,17.20
2019-06-08T19:54:01.915Z,17.10
2019-06-08T19:59:06.244Z,17.10
2019-06-08T20:04:09.360Z,17.10
2019-06-08T20:09:12.112Z,16.90
2019-06-08T20:14:15.164Z,16.90
2019-06-08T20:19:17.823Z,16.90
2019-06-08T20:24:20.490Z,16.90
2019-06-08T20:29:23.182Z,16.80
2019-06-08T20:34:27.079Z,16.70
2019-06-08T20:39:29.940Z,16.70
2019-06-08T20:44:32.610Z,16.60
2019-06-08T20:49:37.200Z,16.50
2019-06-08T20:54:39.657Z,16.50
2019-06-08T20:59:43.553Z,16.40
2019-06-08T21:04:49.129Z,16.30
2019-06-08T21:09:52.658Z,16.20
2019-06-08T21:15:14.632Z,16.20
2019-06-08T21:20:17.744Z,16.20
2019-06-08T21:25:20.561Z,16.00
2019-06-08T21:30:24.731Z,15.90
2019-06-08T21:35:27.730Z,15.90
2019-06-08T21:40:30.394Z,15.90
2019-06-08T21:45:33.084Z,15.80
2019-06-08T21:50:37.143Z,15.60
2019-06-08T21:55:40.078Z,15.60
2019-06-08T22:00:43.541Z,15.50
2019-06-08T22:05:47.312Z,15.50
2019-06-08T22:10:51.199Z,15.40
2019-06-08T22:15:54.830Z,15.30
2019-06-08T22:20:59.783Z,15.20
2019-06-08T22:26:02.057Z,15.30
2019-06-08T22:31:04.845Z,15.30
2019-06-08T22:36:09.124Z,15.20
2019-06-08T22:41:31.419Z,15.10
2019-06-08T22:46:34.146Z,15.10
2019-06-08T22:51:38.279Z,15.00
2019-06-08T22:56:41.244Z,14.90
2019-06-08T23:01:43.992Z,14.90
2019-06-08T23:06:47.599Z,14.80
2019-06-08T23:11:50.373Z,14.80
2019-06-08T23:16:53.174Z,14.60
2019-06-08T23:21:58.268Z,14.70
2019-06-08T23:27:00.251Z,14.60
2019-06-08T23:32:04.544Z,14.70
2019-06-08T23:37:12.382Z,14.70
2019-06-08T23:42:11.783Z,14.70
2019-06-08T23:47:14.453Z,14.70
2019-06-08T23:52:17.796Z,14.60
2019-06-08T23:57:20.746Z,14.60
